sensor_id;sensor_type;location;lat;lon;timestamp;P1;durP1;ratioP1;P2;durP2;ratioP2
7110;SDS011;3597;42.650;23.386;2022-07-29T00:01:20;16.53;;;16.03;;
7110;SDS011;3597;42.650;23.386;2022-07-29T00:03:45;16.43;;;15.93;;
7110;SDS011;3597;42.650;23.386;2022-07-29T00:06:11;14.93;;;14.47;;
7110;SDS011;3597;42.650;23.386;2022-07-29T00:08:36;15.33;;;14.83;;
7110;SDS011;3597;42.650;23.386;2022-07-29T00:11:02;16.43;;;15.93;;
7110;SDS011;3597;42.650;23.386;2022-07-29T00:13:27;15.90;;;15.40;;
7110;SDS011;3597;42.650;23.386;2022-07-29T00:15:52;14.83;;;14.40;;
7110;SDS011;3597;42.650;23.386;2022-07-29T00:18:18;15.43;;;14.93;;
7110;SDS011;3597;42.650;23.386;2022-07-29T00:20:43;15.93;;;15.43;;
7110;SDS011;3597;42.650;23.386;2022-07-29T00:23:08;17.73;;;17.13;;
7110;SDS011;3597;42.650;23.386;2022-07-29T00:25:34;17.30;;;16.67;;
7110;SDS011;3597;42.650;23.386;2022-07-29T00:27:59;17.80;;;17.20;;
7110;SDS011;3597;42.650;23.386;2022-07-29T00:30:24;18.83;;;18.20;;
7110;SDS011;3597;42.650;23.386;2022-07-29T00:32:50;22.73;;;21.93;;
7110;SDS011;3597;42.650;23.386;2022-07-29T00:35:15;23.20;;;22.40;;
7110;SDS011;3597;42.650;23.386;2022-07-29T00:37:59;25.50;;;24.60;;
7110;SDS011;3597;42.650;23.386;2022-07-29T00:40:24;26.17;;;25.23;;
7110;SDS011;3597;42.650;23.386;2022-07-29T00:42:50;24.93;;;24.03;;
7110;SDS011;3597;42.650;23.386;2022-07-29T00:45:17;23.37;;;22.50;;
7110;SDS011;3597;42.650;23.386;2022-07-29T00:47:43;21.83;;;21.03;;
7110;SDS011;3597;42.650;23.386;2022-07-29T00:50:09;20.50;;;19.80;;
7110;SDS011;3597;42.650;23.386;2022-07-29T00:52:37;18.80;;;18.20;;
7110;SDS011;3597;42.650;23.386;2022-07-29T00:55:05;16.03;;;15.53;;
7110;SDS011;3597;42.650;23.386;2022-07-29T00:57:32;13.63;;;13.23;;
7110;SDS011;3597;42.650;23.386;2022-07-29T00:59:58;11.17;;;10.87;;
7110;SDS011;3597;42.650;23.386;2022-07-29T01:02:23;10.07;;;9.80;;
7110;SDS011;3597;42.650;23.386;2022-07-29T01:04:48;9.77;;;9.57;;
7110;SDS011;3597;42.650;23.386;2022-07-29T01:07:14;8.37;;;8.17;;
7110;SDS011;3597;42.650;23.386;2022-07-29T01:09:39;7.87;;;7.73;;
7110;SDS011;3597;42.650;23.386;2022-07-29T01:12:06;7.93;;;7.73;;
7110;SDS011;3597;42.650;23.386;2022-07-29T01:14:31;6.90;;;6.70;;
7110;SDS011;3597;42.650;23.386;2022-07-29T01:17:02;6.97;;;6.87;;
7110;SDS011;3597;42.650;23.386;2022-07-29T01:25:05;11.10;;;10.80;;
7110;SDS011;3597;42.650;23.386;2022-07-29T01:30:09;10.57;;;10.27;;
7110;SDS011;3597;42.650;23.386;2022-07-29T01:32:35;8.50;;;8.30;;
7110;SDS011;3597;42.650;23.386;2022-07-29T01:40:46;4.70;;;4.60;;
7110;SDS011;3597;42.650;23.386;2022-07-29T01:43:16;4.80;;;4.70;;
7110;SDS011;3597;42.650;23.386;2022-07-29T01:45:47;5.63;;;5.53;;
7110;SDS011;3597;42.650;23.386;2022-07-29T01:48:47;4.47;;;4.47;;
7110;SDS011;3597;42.650;23.386;2022-07-29T01:51:14;5.60;;;5.50;;
7110;SDS011;3597;42.650;23.386;2022-07-29T01:56:39;10.97;;;10.67;;
7110;SDS011;3597;42.650;23.386;2022-07-29T01:59:06;13.77;;;13.37;;
7110;SDS011;3597;42.650;23.386;2022-07-29T02:01:32;14.67;;;14.20;;
7110;SDS011;3597;42.650;23.386;2022-07-29T02:03:59;15.50;;;15.00;;
7110;SDS011;3597;42.650;23.386;2022-07-29T02:06:27;15.67;;;15.17;;
7110;SDS011;3597;42.650;23.386;2022-07-29T02:08:53;16.13;;;15.63;;
7110;SDS011;3597;42.650;23.386;2022-07-29T02:11:19;16.93;;;16.13;;
7110;SDS011;3597;42.650;23.386;2022-07-29T02:13:44;17.73;;;17.13;;
7110;SDS011;3597;42.650;23.386;2022-07-29T02:16:10;18.87;;;18.17;;
7110;SDS011;3597;42.650;23.386;2022-07-29T02:18:37;17.83;;;17.23;;
7110;SDS011;3597;42.650;23.386;2022-07-29T02:21:04;19.33;;;18.67;;
7110;SDS011;3597;42.650;23.386;2022-07-29T02:23:30;18.53;;;17.93;;
7110;SDS011;3597;42.650;23.386;2022-07-29T02:25:56;18.17;;;17.57;;
7110;SDS011;3597;42.650;23.386;2022-07-29T02:28:24;17.30;;;16.80;;
7110;SDS011;3597;42.650;23.386;2022-07-29T02:30:52;14.87;;;14.43;;
7110;SDS011;3597;42.650;23.386;2022-07-29T02:33:19;14.47;;;14.07;;
7110;SDS011;3597;42.650;23.386;2022-07-29T02:35:46;18.27;;;17.67;;
7110;SDS011;3597;42.650;23.386;2022-07-29T02:38:13;15.70;;;15.20;;
7110;SDS011;3597;42.650;23.386;2022-07-29T02:40:58;13.20;;;12.80;;
7110;SDS011;3597;42.650;23.386;2022-07-29T02:43:25;13.93;;;13.50;;
7110;SDS011;3597;42.650;23.386;2022-07-29T02:45:51;13.30;;;12.90;;
7110;SDS011;3597;42.650;23.386;2022-07-29T02:48:18;13.73;;;13.33;;
7110;SDS011;3597;42.650;23.386;2022-07-29T02:50:48;12.93;;;12.53;;
7110;SDS011;3597;42.650;23.386;2022-07-29T02:53:16;12.53;;;12.23;;
7110;SDS011;3597;42.650;23.386;2022-07-29T02:55:45;12.67;;;12.10;;
7110;SDS011;3597;42.650;23.386;2022-07-29T03:00:44;12.77;;;12.47;;
7110;SDS011;3597;42.650;23.386;2022-07-29T03:03:12;12.57;;;12.17;;
7110;SDS011;3597;42.650;23.386;2022-07-29T03:05:38;12.23;;;11.93;;
7110;SDS011;3597;42.650;23.386;2022-07-29T03:08:05;11.07;;;10.77;;
7110;SDS011;3597;42.650;23.386;2022-07-29T03:10:32;13.10;;;12.70;;
7110;SDS011;3597;42.650;23.386;2022-07-29T03:12:58;11.00;;;10.70;;
7110;SDS011;3597;42.650;23.386;2022-07-29T03:15:24;11.50;;;11.10;;
7110;SDS011;3597;42.650;23.386;2022-07-29T03:17:50;12.20;;;11.90;;
7110;SDS011;3597;42.650;23.386;2022-07-29T03:20:16;13.57;;;13.07;;
7110;SDS011;3597;42.650;23.386;2022-07-29T03:22:42;14.37;;;13.70;;
7110;SDS011;3597;42.650;23.386;2022-07-29T03:25:11;13.13;;;12.73;;
7110;SDS011;3597;42.650;23.386;2022-07-29T03:27:41;13.23;;;12.83;;
7110;SDS011;3597;42.650;23.386;2022-07-29T03:30:07;13.67;;;13.27;;
7110;SDS011;3597;42.650;23.386;2022-07-29T03:32:34;13.83;;;13.43;;
7110;SDS011;3597;42.650;23.386;2022-07-29T03:34:59;16.20;;;15.67;;
7110;SDS011;3597;42.650;23.386;2022-07-29T03:37:25;16.00;;;15.43;;
7110;SDS011;3597;42.650;23.386;2022-07-29T03:39:51;15.93;;;15.33;;
7110;SDS011;3597;42.650;23.386;2022-07-29T03:42:18;18.03;;;17.23;;
7110;SDS011;3597;42.650;23.386;2022-07-29T03:44:45;18.07;;;17.37;;
7110;SDS011;3597;42.650;23.386;2022-07-29T03:47:13;18.07;;;17.47;;
7110;SDS011;3597;42.650;23.386;2022-07-29T03:49:39;17.10;;;16.50;;
7110;SDS011;3597;42.650;23.386;2022-07-29T03:52:05;17.20;;;16.60;;
7110;SDS011;3597;42.650;23.386;2022-07-29T03:54:31;15.53;;;15.00;;
7110;SDS011;3597;42.650;23.386;2022-07-29T03:56:56;17.07;;;16.47;;
7110;SDS011;3597;42.650;23.386;2022-07-29T03:59:24;15.70;;;15.10;;
7110;SDS011;3597;42.650;23.386;2022-07-29T04:01:51;16.50;;;15.87;;
7110;SDS011;3597;42.650;23.386;2022-07-29T04:04:17;17.73;;;17.03;;
7110;SDS011;3597;42.650;23.386;2022-07-29T04:06:43;19.53;;;18.77;;
7110;SDS011;3597;42.650;23.386;2022-07-29T04:09:10;23.93;;;22.93;;
7110;SDS011;3597;42.650;23.386;2022-07-29T04:11:36;26.83;;;25.77;;
7110;SDS011;3597;42.650;23.386;2022-07-29T04:14:03;32.70;;;31.33;;
7110;SDS011;3597;42.650;23.386;2022-07-29T04:16:29;30.50;;;29.30;;
7110;SDS011;3597;42.650;23.386;2022-07-29T04:18:54;8.10;;;7.90;;
7110;SDS011;3597;42.650;23.386;2022-07-29T04:21:19;3.90;;;3.80;;
7110;SDS011;3597;42.650;23.386;2022-07-29T04:23:45;7.17;;;7.03;;
7110;SDS011;3597;42.650;23.386;2022-07-29T04:26:14;6.60;;;6.50;;
7110;SDS011;3597;42.650;23.386;2022-07-29T04:28:39;4.90;;;4.80;;
7110;SDS011;3597;42.650;23.386;2022-07-29T04:31:07;5.00;;;4.90;;
7110;SDS011;3597;42.650;23.386;2022-07-29T04:33:32;4.30;;;4.20;;
7110;SDS011;3597;42.650;23.386;2022-07-29T04:35:58;5.73;;;5.63;;
7110;SDS011;3597;42.650;23.386;2022-07-29T04:38:23;5.30;;;5.20;;
7110;SDS011;3597;42.650;23.386;2022-07-29T04:40:48;4.73;;;4.63;;
7110;SDS011;3597;42.650;23.386;2022-07-29T04:43:14;5.60;;;5.50;;
7110;SDS011;3597;42.650;23.386;2022-07-29T04:45:40;5.03;;;4.93;;
7110;SDS011;3597;42.650;23.386;2022-07-29T04:48:06;5.63;;;5.53;;
7110;SDS011;3597;42.650;23.386;2022-07-29T04:50:31;7.00;;;6.90;;
7110;SDS011;3597;42.650;23.386;2022-07-29T04:52:57;8.37;;;8.20;;
7110;SDS011;3597;42.650;23.386;2022-07-29T04:55:22;8.73;;;8.53;;
7110;SDS011;3597;42.650;23.386;2022-07-29T04:57:48;11.83;;;11.53;;
7110;SDS011;3597;42.650;23.386;2022-07-29T05:00:13;9.77;;;9.57;;
7110;SDS011;3597;42.650;23.386;2022-07-29T05:02:39;8.93;;;8.73;;
7110;SDS011;3597;42.650;23.386;2022-07-29T05:05:04;13.97;;;13.60;;
7110;SDS011;3597;42.650;23.386;2022-07-29T05:07:30;25.07;;;24.17;;
7110;SDS011;3597;42.650;23.386;2022-07-29T05:09:55;7.30;;;7.10;;
7110;SDS011;3597;42.650;23.386;2022-07-29T05:12:22;5.33;;;5.17;;
7110;SDS011;3597;42.650;23.386;2022-07-29T05:14:48;7.20;;;7.10;;
7110;SDS011;3597;42.650;23.386;2022-07-29T05:17:13;4.03;;;4.03;;
7110;SDS011;3597;42.650;23.386;2022-07-29T05:19:38;4.97;;;4.88;;
7110;SDS011;3597;42.650;23.386;2022-07-29T05:22:04;5.68;;;5.57;;
7110;SDS011;3597;42.650;23.386;2022-07-29T05:24:29;5.57;;;5.47;;
7110;SDS011;3597;42.650;23.386;2022-07-29T05:26:55;5.78;;;5.68;;
7110;SDS011;3597;42.650;23.386;2022-07-29T05:29:20;5.78;;;5.68;;
7110;SDS011;3597;42.650;23.386;2022-07-29T05:31:46;7.70;;;7.55;;
7110;SDS011;3597;42.650;23.386;2022-07-29T05:34:11;6.38;;;6.28;;
7110;SDS011;3597;42.650;23.386;2022-07-29T05:36:36;5.28;;;5.13;;
7110;SDS011;3597;42.650;23.386;2022-07-29T05:39:02;4.60;;;4.50;;
7110;SDS011;3597;42.650;23.386;2022-07-29T05:41:27;3.90;;;3.83;;
7110;SDS011;3597;42.650;23.386;2022-07-29T05:43:53;4.45;;;4.43;;
7110;SDS011;3597;42.650;23.386;2022-07-29T05:46:19;4.22;;;4.22;;
7110;SDS011;3597;42.650;23.386;2022-07-29T05:48:45;3.60;;;3.60;;
7110;SDS011;3597;42.650;23.386;2022-07-29T05:51:10;3.30;;;3.30;;
7110;SDS011;3597;42.650;23.386;2022-07-29T05:53:35;3.45;;;3.45;;
7110;SDS011;3597;42.650;23.386;2022-07-29T05:56:04;3.78;;;3.63;;
7110;SDS011;3597;42.650;23.386;2022-07-29T05:58:30;3.97;;;3.97;;
7110;SDS011;3597;42.650;23.386;2022-07-29T06:00:55;4.55;;;4.50;;
7110;SDS011;3597;42.650;23.386;2022-07-29T06:03:24;4.65;;;4.57;;
7110;SDS011;3597;42.650;23.386;2022-07-29T06:05:50;4.40;;;4.30;;
7110;SDS011;3597;42.650;23.386;2022-07-29T06:08:15;4.03;;;4.03;;
7110;SDS011;3597;42.650;23.386;2022-07-29T06:10:40;4.10;;;4.00;;
7110;SDS011;3597;42.650;23.386;2022-07-29T06:13:06;3.85;;;3.85;;
7110;SDS011;3597;42.650;23.386;2022-07-29T06:15:31;3.90;;;3.90;;
7110;SDS011;3597;42.650;23.386;2022-07-29T06:17:57;4.18;;;4.07;;
7110;SDS011;3597;42.650;23.386;2022-07-29T06:20:22;4.53;;;4.43;;
7110;SDS011;3597;42.650;23.386;2022-07-29T06:22:47;3.95;;;3.85;;
7110;SDS011;3597;42.650;23.386;2022-07-29T06:25:13;3.55;;;3.55;;
7110;SDS011;3597;42.650;23.386;2022-07-29T06:27:38;4.10;;;4.03;;
7110;SDS011;3597;42.650;23.386;2022-07-29T06:30:04;4.20;;;4.20;;
7110;SDS011;3597;42.650;23.386;2022-07-29T06:32:32;4.03;;;4.03;;
7110;SDS011;3597;42.650;23.386;2022-07-29T06:34:58;3.85;;;3.83;;
7110;SDS011;3597;42.650;23.386;2022-07-29T06:37:23;5.47;;;5.38;;
7110;SDS011;3597;42.650;23.386;2022-07-29T06:39:48;4.90;;;4.80;;
7110;SDS011;3597;42.650;23.386;2022-07-29T06:42:34;3.70;;;3.70;;
7110;SDS011;3597;42.650;23.386;2022-07-29T06:44:59;3.45;;;3.45;;
7110;SDS011;3597;42.650;23.386;2022-07-29T06:47:24;3.95;;;3.95;;
7110;SDS011;3597;42.650;23.386;2022-07-29T06:49:50;4.63;;;4.63;;
7110;SDS011;3597;42.650;23.386;2022-07-29T06:52:15;4.05;;;4.05;;
7110;SDS011;3597;42.650;23.386;2022-07-29T06:54:40;3.67;;;3.67;;
7110;SDS011;3597;42.650;23.386;2022-07-29T06:57:12;3.67;;;3.67;;
7110;SDS011;3597;42.650;23.386;2022-07-29T06:59:38;3.95;;;3.85;;
7110;SDS011;3597;42.650;23.386;2022-07-29T07:02:03;3.95;;;3.95;;
7110;SDS011;3597;42.650;23.386;2022-07-29T07:04:29;4.32;;;4.32;;
7110;SDS011;3597;42.650;23.386;2022-07-29T07:06:54;3.80;;;3.70;;
7110;SDS011;3597;42.650;23.386;2022-07-29T07:09:20;3.53;;;3.53;;
7110;SDS011;3597;42.650;23.386;2022-07-29T07:11:46;3.50;;;3.42;;
7110;SDS011;3597;42.650;23.386;2022-07-29T07:14:11;3.55;;;3.50;;
7110;SDS011;3597;42.650;23.386;2022-07-29T07:16:36;4.18;;;4.07;;
7110;SDS011;3597;42.650;23.386;2022-07-29T07:19:02;3.80;;;3.80;;
7110;SDS011;3597;42.650;23.386;2022-07-29T07:21:27;4.35;;;4.35;;
7110;SDS011;3597;42.650;23.386;2022-07-29T07:23:53;4.38;;;4.38;;
7110;SDS011;3597;42.650;23.386;2022-07-29T07:26:18;4.90;;;4.80;;
7110;SDS011;3597;42.650;23.386;2022-07-29T07:28:44;4.38;;;4.28;;
7110;SDS011;3597;42.650;23.386;2022-07-29T07:31:09;4.50;;;4.40;;
7110;SDS011;3597;42.650;23.386;2022-07-29T07:33:35;5.00;;;4.95;;
7110;SDS011;3597;42.650;23.386;2022-07-29T07:36:00;5.47;;;5.38;;
7110;SDS011;3597;42.650;23.386;2022-07-29T07:38:26;5.50;;;5.40;;
7110;SDS011;3597;42.650;23.386;2022-07-29T07:40:51;5.25;;;5.15;;
7110;SDS011;3597;42.650;23.386;2022-07-29T07:43:17;5.57;;;5.47;;
7110;SDS011;3597;42.650;23.386;2022-07-29T07:45:42;5.22;;;5.13;;
7110;SDS011;3597;42.650;23.386;2022-07-29T07:48:07;5.10;;;5.10;;
7110;SDS011;3597;42.650;23.386;2022-07-29T07:50:35;5.72;;;5.63;;
7110;SDS011;3597;42.650;23.386;2022-07-29T07:53:01;5.95;;;5.85;;
7110;SDS011;3597;42.650;23.386;2022-07-29T07:55:27;5.50;;;5.40;;
7110;SDS011;3597;42.650;23.386;2022-07-29T07:57:53;5.65;;;5.55;;
7110;SDS011;3597;42.650;23.386;2022-07-29T08:00:19;6.25;;;6.15;;
7110;SDS011;3597;42.650;23.386;2022-07-29T08:02:45;5.85;;;5.65;;
7110;SDS011;3597;42.650;23.386;2022-07-29T08:05:10;6.47;;;6.38;;
7110;SDS011;3597;42.650;23.386;2022-07-29T08:07:37;5.60;;;5.50;;
7110;SDS011;3597;42.650;23.386;2022-07-29T08:10:03;5.93;;;5.82;;
7110;SDS011;3597;42.650;23.386;2022-07-29T08:12:30;6.03;;;5.93;;
7110;SDS011;3597;42.650;23.386;2022-07-29T08:14:55;5.90;;;5.80;;
7110;SDS011;3597;42.650;23.386;2022-07-29T08:17:20;4.90;;;4.90;;
7110;SDS011;3597;42.650;23.386;2022-07-29T08:19:46;4.72;;;4.63;;
7110;SDS011;3597;42.650;23.386;2022-07-29T08:22:13;4.50;;;4.40;;
7110;SDS011;3597;42.650;23.386;2022-07-29T08:24:39;4.13;;;4.13;;
7110;SDS011;3597;42.650;23.386;2022-07-29T08:27:21;3.80;;;3.80;;
7110;SDS011;3597;42.650;23.386;2022-07-29T08:29:47;4.22;;;4.13;;
7110;SDS011;3597;42.650;23.386;2022-07-29T08:32:12;4.78;;;4.78;;
7110;SDS011;3597;42.650;23.386;2022-07-29T08:34:37;4.97;;;4.97;;
7110;SDS011;3597;42.650;23.386;2022-07-29T08:37:03;5.50;;;5.40;;
7110;SDS011;3597;42.650;23.386;2022-07-29T08:39:28;5.20;;;5.10;;
7110;SDS011;3597;42.650;23.386;2022-07-29T08:41:53;4.55;;;4.45;;
7110;SDS011;3597;42.650;23.386;2022-07-29T08:44:20;3.80;;;3.80;;
7110;SDS011;3597;42.650;23.386;2022-07-29T08:46:47;4.40;;;4.40;;
7110;SDS011;3597;42.650;23.386;2022-07-29T08:49:14;3.88;;;3.88;;
7110;SDS011;3597;42.650;23.386;2022-07-29T08:51:40;3.50;;;3.50;;
7110;SDS011;3597;42.650;23.386;2022-07-29T08:54:06;3.60;;;3.60;;
7110;SDS011;3597;42.650;23.386;2022-07-29T08:56:33;3.47;;;3.47;;
7110;SDS011;3597;42.650;23.386;2022-07-29T08:58:59;3.17;;;3.17;;
7110;SDS011;3597;42.650;23.386;2022-07-29T09:01:29;3.28;;;3.28;;
7110;SDS011;3597;42.650;23.386;2022-07-29T09:03:56;3.40;;;3.40;;
7110;SDS011;3597;42.650;23.386;2022-07-29T09:06:22;3.30;;;3.30;;
7110;SDS011;3597;42.650;23.386;2022-07-29T09:08:51;3.42;;;3.42;;
7110;SDS011;3597;42.650;23.386;2022-07-29T09:11:16;3.58;;;3.58;;
7110;SDS011;3597;42.650;23.386;2022-07-29T09:13:42;3.60;;;3.60;;
7110;SDS011;3597;42.650;23.386;2022-07-29T09:16:08;3.50;;;3.50;;
7110;SDS011;3597;42.650;23.386;2022-07-29T09:18:34;3.40;;;3.40;;
7110;SDS011;3597;42.650;23.386;2022-07-29T09:21:05;3.25;;;3.25;;
7110;SDS011;3597;42.650;23.386;2022-07-29T09:24:23;3.40;;;3.40;;
7110;SDS011;3597;42.650;23.386;2022-07-29T09:26:45;3.22;;;3.22;;
7110;SDS011;3597;42.650;23.386;2022-07-29T09:29:15;3.35;;;3.35;;
7110;SDS011;3597;42.650;23.386;2022-07-29T09:31:42;3.88;;;3.88;;
7110;SDS011;3597;42.650;23.386;2022-07-29T09:34:14;4.50;;;4.40;;
7110;SDS011;3597;42.650;23.386;2022-07-29T09:37:00;4.57;;;4.50;;
7110;SDS011;3597;42.650;23.386;2022-07-29T09:39:38;4.95;;;4.85;;
7110;SDS011;3597;42.650;23.386;2022-07-29T09:42:10;4.25;;;4.25;;
7110;SDS011;3597;42.650;23.386;2022-07-29T09:44:40;5.05;;;4.95;;
7110;SDS011;3597;42.650;23.386;2022-07-29T09:47:10;4.40;;;4.40;;
7110;SDS011;3597;42.650;23.386;2022-07-29T09:49:50;3.72;;;3.72;;
7110;SDS011;3597;42.650;23.386;2022-07-29T09:52:19;3.92;;;3.92;;
7110;SDS011;3597;42.650;23.386;2022-07-29T09:54:45;3.80;;;3.80;;
7110;SDS011;3597;42.650;23.386;2022-07-29T09:57:26;3.60;;;3.60;;
7110;SDS011;3597;42.650;23.386;2022-07-29T10:00:06;3.60;;;3.60;;
7110;SDS011;3597;42.650;23.386;2022-07-29T10:02:36;3.38;;;3.38;;
7110;SDS011;3597;42.650;23.386;2022-07-29T10:05:03;3.60;;;3.60;;
7110;SDS011;3597;42.650;23.386;2022-07-29T10:07:43;3.53;;;3.53;;
7110;SDS011;3597;42.650;23.386;2022-07-29T10:10:09;3.13;;;3.13;;
7110;SDS011;3597;42.650;23.386;2022-07-29T10:12:34;3.85;;;3.85;;
7110;SDS011;3597;42.650;23.386;2022-07-29T10:15:14;3.92;;;3.92;;
7110;SDS011;3597;42.650;23.386;2022-07-29T10:17:40;3.42;;;3.42;;
7110;SDS011;3597;42.650;23.386;2022-07-29T10:20:06;3.63;;;3.63;;
7110;SDS011;3597;42.650;23.386;2022-07-29T10:22:32;3.55;;;3.55;;
7110;SDS011;3597;42.650;23.386;2022-07-29T10:24:58;3.85;;;3.78;;
7110;SDS011;3597;42.650;23.386;2022-07-29T10:27:24;3.47;;;3.47;;
7110;SDS011;3597;42.650;23.386;2022-07-29T10:29:49;3.70;;;3.70;;
7110;SDS011;3597;42.650;23.386;2022-07-29T10:37:59;3.90;;;3.90;;
7110;SDS011;3597;42.650;23.386;2022-07-29T10:41:50;3.25;;;3.25;;
7110;SDS011;3597;42.650;23.386;2022-07-29T10:44:06;3.80;;;3.70;;
7110;SDS011;3597;42.650;23.386;2022-07-29T10:46:38;3.50;;;3.50;;
7110;SDS011;3597;42.650;23.386;2022-07-29T10:49:08;3.97;;;3.97;;
7110;SDS011;3597;42.650;23.386;2022-07-29T10:54:35;4.00;;;4.00;;
7110;SDS011;3597;42.650;23.386;2022-07-29T10:57:11;3.80;;;3.70;;
7110;SDS011;3597;42.650;23.386;2022-07-29T10:59:50;4.18;;;4.18;;
7110;SDS011;3597;42.650;23.386;2022-07-29T11:05:17;4.88;;;4.85;;
7110;SDS011;3597;42.650;23.386;2022-07-29T11:10:37;3.97;;;3.88;;
7110;SDS011;3597;42.650;23.386;2022-07-29T11:13:03;3.53;;;3.53;;
7110;SDS011;3597;42.650;23.386;2022-07-29T11:15:28;3.55;;;3.55;;
7110;SDS011;3597;42.650;23.386;2022-07-29T11:23:28;3.65;;;3.65;;
7110;SDS011;3597;42.650;23.386;2022-07-29T11:28:48;3.40;;;3.40;;
7110;SDS011;3597;42.650;23.386;2022-07-29T11:31:16;3.65;;;3.65;;
7110;SDS011;3597;42.650;23.386;2022-07-29T11:33:44;4.95;;;4.75;;
7110;SDS011;3597;42.650;23.386;2022-07-29T11:36:10;5.32;;;5.25;;
7110;SDS011;3597;42.650;23.386;2022-07-29T11:38:37;5.25;;;5.15;;
7110;SDS011;3597;42.650;23.386;2022-07-29T11:41:36;5.05;;;4.95;;
7110;SDS011;3597;42.650;23.386;2022-07-29T11:44:00;4.78;;;4.75;;
7110;SDS011;3597;42.650;23.386;2022-07-29T11:46:43;5.38;;;5.28;;
7110;SDS011;3597;42.650;23.386;2022-07-29T11:49:13;6.35;;;6.25;;
7110;SDS011;3597;42.650;23.386;2022-07-29T11:51:49;6.95;;;6.85;;
7110;SDS011;3597;42.650;23.386;2022-07-29T11:54:15;6.78;;;6.68;;
7110;SDS011;3597;42.650;23.386;2022-07-29T11:56:48;7.43;;;7.32;;
7110;SDS011;3597;42.650;23.386;2022-07-29T11:59:14;7.07;;;6.97;;
7110;SDS011;3597;42.650;23.386;2022-07-29T12:01:51;7.63;;;7.53;;
7110;SDS011;3597;42.650;23.386;2022-07-29T12:04:17;5.82;;;5.72;;
7110;SDS011;3597;42.650;23.386;2022-07-29T12:06:42;5.55;;;5.45;;
7110;SDS011;3597;42.650;23.386;2022-07-29T12:09:08;6.35;;;6.25;;
7110;SDS011;3597;42.650;23.386;2022-07-29T12:11:33;6.70;;;6.60;;
7110;SDS011;3597;42.650;23.386;2022-07-29T12:13:59;7.70;;;7.60;;
7110;SDS011;3597;42.650;23.386;2022-07-29T12:16:33;8.45;;;8.35;;
7110;SDS011;3597;42.650;23.386;2022-07-29T12:19:00;9.55;;;9.35;;
7110;SDS011;3597;42.650;23.386;2022-07-29T12:21:27;10.13;;;9.85;;
7110;SDS011;3597;42.650;23.386;2022-07-29T12:23:54;9.77;;;9.57;;
7110;SDS011;3597;42.650;23.386;2022-07-29T12:26:20;8.48;;;8.27;;
7110;SDS011;3597;42.650;23.386;2022-07-29T12:28:45;8.32;;;8.23;;
7110;SDS011;3597;42.650;23.386;2022-07-29T12:31:14;8.73;;;8.63;;
7110;SDS011;3597;42.650;23.386;2022-07-29T12:33:40;9.48;;;9.27;;
7110;SDS011;3597;42.650;23.386;2022-07-29T12:36:06;9.30;;;9.10;;
7110;SDS011;3597;42.650;23.386;2022-07-29T12:38:33;6.60;;;6.50;;
7110;SDS011;3597;42.650;23.386;2022-07-29T12:40:59;5.53;;;5.43;;
7110;SDS011;3597;42.650;23.386;2022-07-29T12:43:25;5.53;;;5.43;;
7110;SDS011;3597;42.650;23.386;2022-07-29T12:45:51;5.15;;;5.07;;
7110;SDS011;3597;42.650;23.386;2022-07-29T12:48:31;5.55;;;5.45;;
7110;SDS011;3597;42.650;23.386;2022-07-29T12:51:07;5.45;;;5.35;;
7110;SDS011;3597;42.650;23.386;2022-07-29T12:53:33;5.07;;;4.97;;
7110;SDS011;3597;42.650;23.386;2022-07-29T12:56:00;5.35;;;5.25;;
7110;SDS011;3597;42.650;23.386;2022-07-29T12:58:32;5.78;;;5.68;;
7110;SDS011;3597;42.650;23.386;2022-07-29T13:13:56;8.70;;;8.50;;
7110;SDS011;3597;42.650;23.386;2022-07-29T13:16:21;8.90;;;8.70;;
7110;SDS011;3597;42.650;23.386;2022-07-29T13:18:46;10.68;;;10.48;;
7110;SDS011;3597;42.650;23.386;2022-07-29T13:21:13;9.55;;;9.35;;
7110;SDS011;3597;42.650;23.386;2022-07-29T13:23:40;9.52;;;9.32;;
7110;SDS011;3597;42.650;23.386;2022-07-29T13:26:09;10.20;;;10.00;;
7110;SDS011;3597;42.650;23.386;2022-07-29T13:28:36;9.05;;;8.85;;
7110;SDS011;3597;42.650;23.386;2022-07-29T13:31:02;9.77;;;9.57;;
7110;SDS011;3597;42.650;23.386;2022-07-29T13:33:27;8.77;;;8.68;;
7110;SDS011;3597;42.650;23.386;2022-07-29T13:35:53;8.98;;;8.77;;
7110;SDS011;3597;42.650;23.386;2022-07-29T13:38:18;9.27;;;9.07;;
7110;SDS011;3597;42.650;23.386;2022-07-29T13:40:44;8.48;;;8.38;;
7110;SDS011;3597;42.650;23.386;2022-07-29T13:43:10;8.93;;;8.73;;
7110;SDS011;3597;42.650;23.386;2022-07-29T13:45:35;8.35;;;8.25;;
7110;SDS011;3597;42.650;23.386;2022-07-29T13:48:01;8.98;;;8.77;;
7110;SDS011;3597;42.650;23.386;2022-07-29T13:50:26;8.80;;;8.65;;
7110;SDS011;3597;42.650;23.386;2022-07-29T13:52:52;8.57;;;8.38;;
7110;SDS011;3597;42.650;23.386;2022-07-29T13:55:17;8.10;;;7.97;;
7110;SDS011;3597;42.650;23.386;2022-07-29T13:57:43;8.05;;;7.90;;
7110;SDS011;3597;42.650;23.386;2022-07-29T14:00:08;7.68;;;7.55;;
7110;SDS011;3597;42.650;23.386;2022-07-29T14:02:34;7.32;;;7.22;;
7110;SDS011;3597;42.650;23.386;2022-07-29T14:05:00;6.80;;;6.70;;
7110;SDS011;3597;42.650;23.386;2022-07-29T14:07:25;6.80;;;6.70;;
7110;SDS011;3597;42.650;23.386;2022-07-29T14:09:50;6.57;;;6.47;;
7110;SDS011;3597;42.650;23.386;2022-07-29T14:12:16;6.43;;;6.32;;
7110;SDS011;3597;42.650;23.386;2022-07-29T14:14:41;6.45;;;6.35;;
7110;SDS011;3597;42.650;23.386;2022-07-29T14:17:06;6.75;;;6.65;;
7110;SDS011;3597;42.650;23.386;2022-07-29T14:19:32;6.82;;;6.72;;
7110;SDS011;3597;42.650;23.386;2022-07-29T14:22:00;6.47;;;6.38;;
7110;SDS011;3597;42.650;23.386;2022-07-29T14:24:27;6.45;;;6.35;;
7110;SDS011;3597;42.650;23.386;2022-07-29T14:26:53;5.70;;;5.60;;
7110;SDS011;3597;42.650;23.386;2022-07-29T14:29:18;5.53;;;5.43;;
7110;SDS011;3597;42.650;23.386;2022-07-29T14:31:44;6.22;;;6.13;;
7110;SDS011;3597;42.650;23.386;2022-07-29T14:34:09;5.75;;;5.65;;
7110;SDS011;3597;42.650;23.386;2022-07-29T14:36:34;5.90;;;5.80;;
7110;SDS011;3597;42.650;23.386;2022-07-29T14:39:00;6.72;;;6.63;;
7110;SDS011;3597;42.650;23.386;2022-07-29T14:41:25;6.03;;;5.93;;
7110;SDS011;3597;42.650;23.386;2022-07-29T14:43:53;6.15;;;6.05;;
7110;SDS011;3597;42.650;23.386;2022-07-29T14:46:19;5.82;;;5.72;;
7110;SDS011;3597;42.650;23.386;2022-07-29T14:48:44;6.93;;;6.82;;
7110;SDS011;3597;42.650;23.386;2022-07-29T14:51:09;7.47;;;7.38;;
7110;SDS011;3597;42.650;23.386;2022-07-29T14:53:35;7.15;;;7.05;;
7110;SDS011;3597;42.650;23.386;2022-07-29T14:56:01;7.40;;;7.30;;
7110;SDS011;3597;42.650;23.386;2022-07-29T14:58:26;7.28;;;7.18;;
7110;SDS011;3597;42.650;23.386;2022-07-29T15:00:51;7.05;;;6.95;;
7110;SDS011;3597;42.650;23.386;2022-07-29T15:03:17;7.07;;;6.97;;
7110;SDS011;3597;42.650;23.386;2022-07-29T15:05:42;7.05;;;6.95;;
7110;SDS011;3597;42.650;23.386;2022-07-29T15:08:08;7.88;;;7.78;;
7110;SDS011;3597;42.650;23.386;2022-07-29T15:10:34;7.78;;;7.68;;
7110;SDS011;3597;42.650;23.386;2022-07-29T15:12:59;7.38;;;7.28;;
7110;SDS011;3597;42.650;23.386;2022-07-29T15:15:25;7.47;;;7.38;;
7110;SDS011;3597;42.650;23.386;2022-07-29T15:17:50;7.70;;;7.60;;
7110;SDS011;3597;42.650;23.386;2022-07-29T15:20:16;7.45;;;7.35;;
7110;SDS011;3597;42.650;23.386;2022-07-29T15:22:41;7.63;;;7.43;;
7110;SDS011;3597;42.650;23.386;2022-07-29T15:25:07;7.22;;;7.13;;
7110;SDS011;3597;42.650;23.386;2022-07-29T15:27:33;7.50;;;7.40;;
7110;SDS011;3597;42.650;23.386;2022-07-29T15:29:59;7.65;;;7.55;;
7110;SDS011;3597;42.650;23.386;2022-07-29T15:32:24;7.35;;;7.25;;
7110;SDS011;3597;42.650;23.386;2022-07-29T15:34:50;6.65;;;6.55;;
7110;SDS011;3597;42.650;23.386;2022-07-29T15:37:15;7.25;;;7.15;;
7110;SDS011;3597;42.650;23.386;2022-07-29T15:39:41;6.93;;;6.82;;
7110;SDS011;3597;42.650;23.386;2022-07-29T15:42:06;6.68;;;6.57;;
7110;SDS011;3597;42.650;23.386;2022-07-29T15:44:31;6.13;;;6.03;;
7110;SDS011;3597;42.650;23.386;2022-07-29T15:46:57;5.85;;;5.75;;
7110;SDS011;3597;42.650;23.386;2022-07-29T15:49:36;5.28;;;5.18;;
7110;SDS011;3597;42.650;23.386;2022-07-29T15:52:06;4.70;;;4.68;;